createdAt,value
2022-08-20T00:01:24.649Z,20.63
2022-08-20T00:03:04.429Z,20.57
2022-08-20T00:04:44.171Z,20.61
2022-08-20T00:06:23.934Z,20.6
2022-08-20T00:08:03.706Z,20.6
2022-08-20T00:09:43.451Z,20.58
2022-08-20T00:11:23.211Z,20.58
2022-08-20T00:13:02.991Z,20.58
2022-08-20T00:14:42.751Z,20.57
2022-08-20T00:16:22.512Z,20.6
2022-08-20T00:18:02.281Z,20.56
2022-08-20T00:19:42.049Z,20.56
2022-08-20T00:21:21.797Z,20.55
2022-08-20T00:23:01.570Z,20.55
2022-08-20T00:24:41.330Z,20.68
2022-08-20T00:26:21.099Z,20.55
2022-08-20T00:28:00.869Z,20.53
2022-08-20T00:29:40.615Z,20.54
2022-08-20T00:31:20.389Z,20.54
2022-08-20T00:33:00.156Z,20.52
2022-08-20T00:34:39.921Z,20.51
2022-08-20T00:36:19.686Z,20.5
2022-08-20T00:37:59.443Z,20.48
2022-08-20T00:39:39.220Z,20.5
2022-08-20T00:41:18.970Z,20.45
2022-08-20T00:42:58.746Z,20.44
2022-08-20T00:44:38.505Z,20.41
2022-08-20T00:46:18.258Z,20.42
2022-08-20T00:47:58.020Z,20.41
2022-08-20T00:51:17.551Z,20.37
2022-08-20T00:52:57.320Z,20.37
2022-08-20T00:54:37.077Z,20.36
2022-08-20T00:56:16.855Z,20.34
2022-08-20T00:59:36.373Z,20.41
2022-08-20T01:01:16.130Z,20.34
2022-08-20T01:02:55.895Z,20.35
2022-08-20T01:04:35.685Z,20.34
2022-08-20T01:06:15.441Z,20.34
2022-08-20T01:07:55.204Z,20.33
2022-08-20T01:09:34.966Z,20.33
2022-08-20T01:11:14.736Z,20.34
2022-08-20T01:12:54.507Z,20.33
2022-08-20T01:14:34.247Z,20.29
2022-08-20T01:16:14.020Z,20.32
2022-08-20T01:17:53.775Z,20.29
2022-08-20T01:19:33.561Z,20.26
2022-08-20T01:21:13.311Z,20.23
2022-08-20T01:22:53.062Z,20.18
2022-08-20T01:24:32.834Z,20.2
2022-08-20T01:27:52.373Z,20.03
2022-08-20T01:29:32.134Z,20.07
2022-08-20T01:31:11.907Z,20.02
2022-08-20T01:32:51.655Z,19.99
2022-08-20T01:34:31.434Z,19.99
2022-08-20T01:36:11.177Z,19.96
2022-08-20T01:37:50.946Z,19.95
2022-08-20T01:39:30.716Z,19.95
2022-08-20T01:41:10.493Z,19.94
2022-08-20T01:42:50.238Z,19.93
2022-08-20T01:44:30.006Z,19.93
2022-08-20T01:46:09.770Z,19.93
2022-08-20T01:47:49.532Z,19.92
2022-08-20T01:49:29.297Z,19.91
2022-08-20T01:51:09.061Z,19.86
2022-08-20T01:52:48.825Z,19.89
2022-08-20T01:54:28.588Z,19.89
2022-08-20T01:56:08.365Z,19.87
2022-08-20T01:57:48.114Z,19.83
2022-08-20T01:59:27.887Z,19.83
2022-08-20T02:01:07.650Z,19.82
2022-08-20T02:02:47.415Z,19.82
2022-08-20T02:04:27.174Z,19.82
2022-08-20T02:07:46.717Z,19.83
2022-08-20T02:09:26.461Z,19.81
2022-08-20T02:11:06.237Z,19.79
2022-08-20T02:12:45.999Z,19.79
2022-08-20T02:14:25.767Z,19.77
2022-08-20T02:16:05.519Z,19.76
2022-08-20T02:17:45.282Z,19.74
2022-08-20T02:19:25.050Z,19.74
2022-08-20T02:21:04.808Z,19.71
2022-08-20T02:22:44.589Z,19.71
2022-08-20T02:24:24.335Z,19.7
2022-08-20T02:26:04.109Z,19.69
2022-08-20T02:27:43.924Z,19.7
2022-08-20T02:29:23.632Z,19.7
2022-08-20T02:31:03.402Z,19.7
2022-08-20T02:32:43.166Z,19.69
2022-08-20T02:34:22.917Z,19.75
2022-08-20T02:36:02.681Z,19.69
2022-08-20T02:37:42.463Z,19.68
2022-08-20T02:39:22.220Z,19.68
2022-08-20T02:41:01.980Z,19.67
2022-08-20T02:42:41.746Z,19.69
2022-08-20T02:44:21.509Z,19.64
2022-08-20T02:46:01.285Z,19.62
2022-08-20T02:47:41.048Z,19.74
2022-08-20T02:49:20.804Z,19.61
2022-08-20T02:51:00.616Z,19.61
2022-08-20T02:52:40.323Z,19.61
2022-08-20T02:54:20.094Z,19.59
2022-08-20T02:55:59.853Z,19.59
2022-08-20T02:57:39.637Z,19.57
2022-08-20T02:59:19.384Z,19.54
2022-08-20T03:00:59.151Z,19.54
2022-08-20T03:02:38.925Z,19.5
2022-08-20T03:04:18.672Z,19.45
2022-08-20T03:05:58.447Z,19.43
2022-08-20T03:07:38.205Z,19.41
2022-08-20T03:09:17.968Z,19.37
2022-08-20T03:10:57.736Z,19.36
2022-08-20T03:12:37.510Z,19.34
2022-08-20T03:14:17.274Z,19.33
2022-08-20T03:15:57.024Z,19.32
2022-08-20T03:17:36.788Z,19.32
2022-08-20T03:19:16.556Z,19.31
2022-08-20T03:20:56.320Z,19.29
2022-08-20T03:22:36.082Z,19.29
2022-08-20T03:24:15.864Z,19.27
2022-08-20T03:25:55.616Z,19.28
2022-08-20T03:27:35.373Z,19.27
2022-08-20T03:29:15.135Z,19.24
2022-08-20T03:30:54.897Z,19.24
2022-08-20T03:32:34.675Z,19.23
2022-08-20T03:34:14.425Z,19.23
2022-08-20T03:35:54.209Z,19.23
2022-08-20T03:37:33.968Z,19.21
2022-08-20T03:39:13.732Z,19.23
2022-08-20T03:40:53.490Z,19.21
2022-08-20T03:42:33.257Z,19.23
2022-08-20T03:44:13.027Z,19.2
2022-08-20T03:45:52.775Z,19.23
2022-08-20T03:47:32.551Z,19.23
2022-08-20T03:49:12.314Z,19.29
2022-08-20T03:50:52.094Z,19.26
2022-08-20T03:52:31.839Z,19.26
2022-08-20T03:54:11.607Z,19.26
2022-08-20T03:55:51.370Z,19.26
2022-08-20T03:57:31.133Z,19.27
2022-08-20T03:59:10.896Z,19.25
2022-08-20T04:00:50.649Z,19.27
2022-08-20T04:02:30.423Z,19.26
2022-08-20T04:04:10.184Z,19.27
2022-08-20T04:05:49.950Z,19.26
2022-08-20T04:07:29.724Z,19.27
2022-08-20T04:09:09.491Z,19.26
2022-08-20T04:10:49.244Z,19.27
2022-08-20T04:12:29.023Z,19.27
2022-08-20T04:14:08.767Z,19.28
2022-08-20T04:15:48.526Z,19.29
2022-08-20T04:17:28.296Z,19.29
2022-08-20T04:19:08.052Z,19.29
2022-08-20T04:20:47.821Z,19.29
2022-08-20T04:22:27.587Z,19.29
2022-08-20T04:24:07.363Z,19.29
2022-08-20T04:25:47.123Z,19.29
2022-08-20T04:27:26.885Z,19.29
2022-08-20T04:29:06.646Z,19.27
2022-08-20T04:30:46.419Z,19.29
2022-08-20T04:32:26.176Z,19.31
2022-08-20T04:34:05.946Z,19.29
2022-08-20T04:35:45.705Z,19.29
2022-08-20T04:37:25.455Z,19.29
2022-08-20T04:39:05.232Z,19.29
2022-08-20T04:40:45.004Z,19.28
2022-08-20T04:42:24.754Z,19.29
2022-08-20T04:44:04.519Z,19.29
2022-08-20T04:45:44.292Z,19.29
2022-08-20T04:47:24.059Z,19.29
2022-08-20T04:49:03.819Z,19.29
2022-08-20T04:50:43.572Z,19.29
2022-08-20T04:52:23.346Z,19.29
2022-08-20T04:54:03.106Z,19.32
2022-08-20T04:55:42.872Z,19.27
2022-08-20T04:57:22.629Z,19.26
2022-08-20T04:59:02.406Z,19.29
2022-08-20T05:00:42.167Z,19.34
2022-08-20T05:02:21.920Z,19.29
2022-08-20T05:04:01.687Z,19.29
2022-08-20T05:05:41.464Z,19.32
2022-08-20T05:07:21.219Z,19.32
2022-08-20T05:09:00.983Z,19.35
2022-08-20T05:10:40.736Z,19.35
2022-08-20T05:12:20.512Z,19.35
2022-08-20T05:14:00.281Z,19.35
2022-08-20T05:15:40.041Z,19.39
2022-08-20T05:17:19.810Z,19.36
2022-08-20T05:18:59.569Z,19.36
2022-08-20T05:20:39.334Z,19.37
2022-08-20T05:22:19.113Z,19.41
2022-08-20T05:23:58.861Z,19.4
2022-08-20T05:25:38.628Z,19.42
2022-08-20T05:27:18.383Z,19.44
2022-08-20T05:28:58.159Z,19.42
2022-08-20T05:30:37.909Z,19.43
2022-08-20T05:32:17.680Z,19.44
2022-08-20T05:33:57.437Z,19.45
2022-08-20T05:35:37.205Z,19.42
2022-08-20T05:37:16.966Z,19.46
2022-08-20T05:38:56.727Z,19.45
2022-08-20T05:40:36.495Z,19.48
2022-08-20T05:42:16.262Z,19.51
2022-08-20T05:43:56.020Z,19.5
2022-08-20T05:45:35.803Z,19.51
2022-08-20T05:47:15.563Z,19.6
2022-08-20T05:48:55.314Z,19.54
2022-08-20T05:50:35.088Z,19.57
2022-08-20T05:52:14.849Z,19.58
2022-08-20T05:53:54.614Z,19.59
2022-08-20T05:55:34.383Z,19.64
2022-08-20T05:57:14.138Z,19.65
2022-08-20T05:58:53.897Z,19.65
2022-08-20T06:00:33.676Z,19.68
2022-08-20T06:02:13.436Z,19.69
2022-08-20T06:03:53.202Z,19.7
2022-08-20T06:05:32.959Z,19.67
2022-08-20T06:07:12.726Z,19.74
2022-08-20T06:08:52.489Z,19.73
2022-08-20T06:10:32.260Z,19.76
2022-08-20T06:12:12.019Z,19.78
2022-08-20T06:13:51.773Z,19.89
2022-08-20T06:15:31.549Z,19.79
2022-08-20T06:17:11.306Z,19.79
2022-08-20T06:18:51.066Z,19.79
2022-08-20T06:20:30.844Z,19.81
2022-08-20T06:22:10.604Z,19.79
2022-08-20T06:23:50.367Z,19.81
2022-08-20T06:25:30.124Z,19.87
2022-08-20T06:27:09.891Z,19.87
2022-08-20T06:28:49.663Z,19.82
2022-08-20T06:30:29.415Z,19.82
2022-08-20T06:32:09.180Z,19.83
2022-08-20T06:33:48.949Z,19.79
2022-08-20T06:35:28.702Z,19.79
2022-08-20T06:37:08.482Z,19.79
2022-08-20T06:38:48.240Z,19.79
2022-08-20T06:40:28.016Z,19.79
2022-08-20T06:42:07.767Z,19.79
2022-08-20T06:43:47.521Z,19.91
2022-08-20T06:45:27.297Z,19.79
2022-08-20T06:47:07.056Z,19.86
2022-08-20T06:48:46.835Z,19.78
2022-08-20T06:50:26.583Z,19.78
2022-08-20T06:53:46.116Z,19.75
2022-08-20T06:55:25.886Z,19.73
2022-08-20T06:57:05.635Z,19.75
2022-08-20T06:58:45.399Z,19.76
2022-08-20T07:00:25.169Z,19.75
2022-08-20T07:02:04.939Z,19.76
2022-08-20T07:03:44.705Z,19.79
2022-08-20T07:07:04.228Z,19.75
2022-08-20T07:08:43.998Z,19.76
2022-08-20T07:10:23.755Z,19.75
2022-08-20T07:12:03.532Z,19.77
2022-08-20T07:13:43.288Z,19.78
2022-08-20T07:15:23.057Z,19.79
2022-08-20T07:17:02.816Z,19.79
2022-08-20T07:18:42.577Z,19.79
2022-08-20T07:20:22.343Z,19.79
2022-08-20T07:22:02.096Z,19.77
2022-08-20T07:23:41.864Z,19.78
2022-08-20T07:25:21.639Z,19.75
2022-08-20T07:27:01.398Z,19.82
2022-08-20T07:28:41.174Z,19.78
2022-08-20T07:30:20.932Z,19.81
2022-08-20T07:32:00.695Z,19.83
2022-08-20T07:33:40.445Z,19.78
2022-08-20T07:35:20.231Z,19.83
2022-08-20T07:36:59.974Z,19.84
2022-08-20T07:38:39.756Z,19.83
2022-08-20T07:40:19.503Z,19.86
2022-08-20T07:41:59.287Z,19.87
2022-08-20T07:43:39.027Z,19.87
2022-08-20T07:45:18.802Z,19.93
2022-08-20T07:46:58.557Z,19.91
2022-08-20T07:48:38.345Z,19.91
2022-08-20T07:50:18.084Z,19.95
2022-08-20T07:51:57.865Z,19.92
2022-08-20T07:53:37.618Z,19.99
2022-08-20T07:55:17.381Z,20.02
2022-08-20T07:56:57.171Z,20.04
2022-08-20T07:58:36.908Z,20.04
2022-08-20T08:00:16.685Z,20.06
2022-08-20T08:01:56.443Z,20.07
2022-08-20T08:03:36.205Z,20.11
2022-08-20T08:05:15.972Z,20.12
2022-08-20T08:06:55.735Z,20.12
2022-08-20T08:08:35.492Z,20.16
2022-08-20T08:10:15.263Z,20.17
2022-08-20T08:11:55.019Z,20.2
2022-08-20T08:13:34.789Z,20.19
2022-08-20T08:15:14.545Z,20.21
2022-08-20T08:16:54.321Z,20.24
2022-08-20T08:18:34.087Z,20.29
2022-08-20T08:20:13.859Z,20.27
2022-08-20T08:21:53.618Z,20.29
2022-08-20T08:23:33.368Z,20.29
2022-08-20T08:25:13.188Z,20.33
2022-08-20T08:26:52.915Z,20.31
2022-08-20T08:28:32.660Z,20.32
2022-08-20T08:30:12.427Z,20.34
2022-08-20T08:31:52.198Z,20.33
2022-08-20T08:33:31.965Z,20.37
2022-08-20T08:35:11.733Z,20.39
2022-08-20T08:36:51.492Z,20.37
2022-08-20T08:38:31.283Z,20.42
2022-08-20T08:40:11.012Z,20.42
2022-08-20T08:41:50.792Z,20.43
2022-08-20T08:43:30.539Z,20.44
2022-08-20T08:45:10.306Z,20.44
2022-08-20T08:46:50.082Z,20.45
2022-08-20T08:48:29.831Z,20.46
2022-08-20T08:50:09.596Z,20.46
2022-08-20T08:51:49.369Z,20.5
2022-08-20T08:53:29.125Z,20.52
2022-08-20T08:56:48.658Z,20.54
2022-08-20T08:58:28.422Z,20.55
2022-08-20T09:00:08.180Z,20.59
2022-08-20T09:01:47.953Z,20.61
2022-08-20T09:03:27.714Z,20.62
2022-08-20T09:05:07.510Z,20.63
2022-08-20T09:06:47.235Z,20.64
2022-08-20T09:08:27.015Z,20.67
2022-08-20T09:10:06.781Z,20.69
2022-08-20T09:11:46.522Z,20.71
2022-08-20T09:13:26.303Z,20.72
2022-08-20T09:15:06.065Z,20.75
2022-08-20T09:16:45.825Z,20.79
2022-08-20T09:18:25.584Z,20.74
2022-08-20T09:20:05.347Z,20.72
2022-08-20T09:21:45.125Z,20.68
2022-08-20T09:23:24.877Z,20.68
2022-08-20T09:26:44.400Z,20.71
2022-08-20T09:28:24.174Z,20.71
2022-08-20T09:30:03.959Z,20.72
2022-08-20T09:33:23.465Z,20.76
2022-08-20T09:35:03.240Z,20.77
2022-08-20T09:36:42.991Z,20.82
2022-08-20T09:38:22.747Z,20.85
2022-08-20T09:41:42.295Z,20.89
2022-08-20T09:43:22.070Z,20.91
2022-08-20T09:45:01.829Z,20.93
2022-08-20T09:46:41.586Z,20.96
2022-08-20T09:48:21.344Z,20.96
2022-08-20T09:50:01.107Z,21
2022-08-20T09:51:40.869Z,21.04
2022-08-20T09:53:20.644Z,21.06
2022-08-20T09:55:00.391Z,21.09
2022-08-20T09:56:40.160Z,21.11
2022-08-20T09:58:19.919Z,21.12
2022-08-20T09:59:59.687Z,21.12
2022-08-20T10:01:39.481Z,21.15
2022-08-20T10:03:19.222Z,21.17
2022-08-20T10:06:38.749Z,21.21
2022-08-20T10:08:18.512Z,21.25
2022-08-20T10:09:58.278Z,21.24
2022-08-20T10:11:38.049Z,21.25
2022-08-20T10:13:17.806Z,21.27
2022-08-20T10:14:57.568Z,21.25
2022-08-20T10:16:37.338Z,21.26
2022-08-20T10:18:17.102Z,21.23
2022-08-20T10:19:56.866Z,21.27
2022-08-20T10:21:36.624Z,21.29
2022-08-20T10:23:16.382Z,21.29
2022-08-20T10:24:56.145Z,21.29
2022-08-20T10:26:35.923Z,21.33
2022-08-20T10:28:15.680Z,21.34
2022-08-20T10:29:55.446Z,21.37
2022-08-20T10:31:35.212Z,21.4
2022-08-20T10:33:14.975Z,21.41
2022-08-20T10:34:54.742Z,21.44
2022-08-20T10:36:34.519Z,21.43
2022-08-20T10:38:14.253Z,21.45
2022-08-20T10:39:54.032Z,21.47
2022-08-20T10:41:33.791Z,21.48
2022-08-20T10:43:13.563Z,21.48
2022-08-20T10:46:33.079Z,21.5
2022-08-20T10:48:12.872Z,21.52
2022-08-20T10:49:52.607Z,21.59
2022-08-20T10:51:32.368Z,21.53
2022-08-20T10:53:12.147Z,21.53
2022-08-20T10:54:51.901Z,21.52
2022-08-20T10:56:31.660Z,21.54
2022-08-20T10:58:11.441Z,21.57
2022-08-20T10:59:51.193Z,21.58
2022-08-20T11:01:30.967Z,21.62
2022-08-20T11:03:10.720Z,21.63
2022-08-20T11:06:30.260Z,21.67
2022-08-20T11:08:10.020Z,21.63
2022-08-20T11:09:49.776Z,21.67
2022-08-20T11:11:29.546Z,21.72
2022-08-20T11:13:09.309Z,21.74
2022-08-20T11:16:28.835Z,21.73
2022-08-20T11:18:08.612Z,21.7
2022-08-20T11:19:48.359Z,21.7
2022-08-20T11:23:07.902Z,21.71
2022-08-20T11:24:47.648Z,21.7
2022-08-20T11:26:27.420Z,21.68
2022-08-20T11:28:07.182Z,21.68
2022-08-20T11:29:46.948Z,21.66
2022-08-20T11:31:26.720Z,21.67
2022-08-20T11:33:06.473Z,21.67
2022-08-20T11:36:26.011Z,21.66
2022-08-20T11:38:05.776Z,21.66
2022-08-20T11:39:45.525Z,21.66
2022-08-20T11:41:25.297Z,21.65
2022-08-20T11:43:05.057Z,21.65
2022-08-20T11:44:44.830Z,21.66
2022-08-20T11:46:24.593Z,21.66
2022-08-20T11:48:04.359Z,21.64
2022-08-20T11:49:44.122Z,21.66
2022-08-20T11:51:23.881Z,21.65
2022-08-20T11:53:03.645Z,21.69
2022-08-20T11:54:43.413Z,21.66
2022-08-20T11:56:23.174Z,21.66
2022-08-20T11:58:02.961Z,21.66
2022-08-20T11:59:42.714Z,21.65
2022-08-20T12:01:22.469Z,21.64
2022-08-20T12:03:02.229Z,21.64
2022-08-20T12:04:41.988Z,21.65
2022-08-20T12:06:21.761Z,21.63
2022-08-20T12:08:01.533Z,21.63
2022-08-20T12:09:41.278Z,21.65
2022-08-20T12:11:21.058Z,21.61
2022-08-20T12:13:00.817Z,21.62
2022-08-20T12:16:20.335Z,21.6
2022-08-20T12:18:00.113Z,21.61
2022-08-20T12:19:39.880Z,21.61
2022-08-20T12:21:19.640Z,21.61
2022-08-20T12:22:59.393Z,21.6
2022-08-20T12:24:39.165Z,21.6
2022-08-20T12:26:18.938Z,21.58
2022-08-20T12:27:58.738Z,21.57
2022-08-20T12:29:38.449Z,21.55
2022-08-20T12:31:18.221Z,21.54
2022-08-20T12:32:57.993Z,21.5
2022-08-20T12:34:37.756Z,21.47
2022-08-20T12:36:17.517Z,21.4
2022-08-20T12:37:57.287Z,21.34
2022-08-20T12:39:37.046Z,21.26
2022-08-20T12:42:56.574Z,21.15
2022-08-20T12:44:36.333Z,21.15
2022-08-20T12:46:16.100Z,21.12
2022-08-20T12:47:55.859Z,21.1
2022-08-20T12:49:35.628Z,21.09
2022-08-20T12:51:15.391Z,21.07
2022-08-20T12:52:55.154Z,21.11
2022-08-20T12:54:34.923Z,21.04
2022-08-20T12:56:14.683Z,21.01
2022-08-20T12:57:54.452Z,20.97
2022-08-20T12:59:34.211Z,20.92
2022-08-20T13:01:13.977Z,20.86
2022-08-20T13:02:53.729Z,20.83
2022-08-20T13:06:13.259Z,20.74
2022-08-20T13:07:53.028Z,20.7
2022-08-20T13:09:32.799Z,20.65
2022-08-20T13:11:12.556Z,20.65
2022-08-20T13:12:52.315Z,20.6
2022-08-20T13:16:11.848Z,20.59
2022-08-20T13:17:51.631Z,20.59
2022-08-20T13:19:31.391Z,20.58
2022-08-20T13:21:11.153Z,20.6
2022-08-20T13:22:50.911Z,20.53
2022-08-20T13:24:30.674Z,20.54
2022-08-20T13:26:10.428Z,20.54
2022-08-20T13:27:50.205Z,20.51
2022-08-20T13:29:29.975Z,20.5
2022-08-20T13:31:09.722Z,20.46
2022-08-20T13:32:49.506Z,20.42
2022-08-20T13:34:29.250Z,20.35
2022-08-20T13:36:09.018Z,20.44
2022-08-20T13:37:48.779Z,20.31
2022-08-20T13:39:28.552Z,20.29
2022-08-20T13:41:08.310Z,20.25
2022-08-20T13:42:48.080Z,20.23
2022-08-20T13:44:27.836Z,20.23
2022-08-20T13:46:07.598Z,20.21
2022-08-20T13:47:47.382Z,20.21
2022-08-20T13:49:27.139Z,20.31
2022-08-20T13:51:06.901Z,20.2
2022-08-20T13:52:46.668Z,20.23
2022-08-20T13:56:06.196Z,20.2
2022-08-20T13:57:45.954Z,20.21
2022-08-20T13:59:25.721Z,20.23
2022-08-20T14:01:05.483Z,20.2
2022-08-20T14:02:45.262Z,20.19
2022-08-20T14:04:25.005Z,20.2
2022-08-20T14:06:04.781Z,20.18
2022-08-20T14:07:44.553Z,20.12
2022-08-20T14:09:24.299Z,20.12
2022-08-20T14:11:04.070Z,20.12
2022-08-20T14:12:43.825Z,20.12
2022-08-20T14:16:03.367Z,20.06
2022-08-20T14:17:43.120Z,20.04
2022-08-20T14:19:22.877Z,20.04
2022-08-20T14:21:02.659Z,20.09
2022-08-20T14:22:42.429Z,20.04
2022-08-20T14:24:22.187Z,20.04
2022-08-20T14:26:01.953Z,20.06
2022-08-20T14:27:41.710Z,20.09
2022-08-20T14:29:21.465Z,20.04
2022-08-20T14:31:01.227Z,20.04
2022-08-20T14:32:41.000Z,20.06
2022-08-20T14:36:00.536Z,20.03
2022-08-20T14:37:40.297Z,20.04
2022-08-20T14:39:20.065Z,20.02
2022-08-20T14:40:59.810Z,20.02
2022-08-20T14:42:39.577Z,20.02
2022-08-20T14:44:19.351Z,20
2022-08-20T14:45:59.104Z,19.99
2022-08-20T14:47:38.874Z,19.96
2022-08-20T14:49:18.643Z,19.96
2022-08-20T14:50:58.397Z,19.95
2022-08-20T14:52:38.176Z,19.98
2022-08-20T14:54:17.941Z,19.95
2022-08-20T14:55:57.701Z,19.98
2022-08-20T14:57:37.467Z,19.95
2022-08-20T14:59:17.225Z,20
2022-08-20T15:02:36.761Z,19.96
2022-08-20T15:04:16.517Z,19.98
2022-08-20T15:05:56.288Z,19.96
2022-08-20T15:07:36.044Z,19.96
2022-08-20T15:09:15.804Z,19.98
2022-08-20T15:10:55.568Z,20
2022-08-20T15:12:35.344Z,20.04
2022-08-20T15:14:15.096Z,20.01
2022-08-20T15:15:54.867Z,20.02
2022-08-20T15:17:34.643Z,20.02
2022-08-20T15:19:14.392Z,20.02
2022-08-20T15:20:54.157Z,20.03
2022-08-20T15:22:33.918Z,20.04
2022-08-20T15:24:13.683Z,20
2022-08-20T15:25:53.461Z,20.01
2022-08-20T15:27:33.214Z,20.01
2022-08-20T15:29:12.992Z,20.03
2022-08-20T15:30:52.756Z,20
2022-08-20T15:32:32.504Z,20.03
2022-08-20T15:34:12.266Z,19.99
2022-08-20T15:35:52.047Z,19.99
2022-08-20T15:37:31.799Z,19.95
2022-08-20T15:39:11.566Z,19.93
2022-08-20T15:40:51.331Z,19.94
2022-08-20T15:42:31.089Z,19.89
2022-08-20T15:44:10.867Z,19.89
2022-08-20T15:45:50.617Z,19.86
2022-08-20T15:47:30.390Z,19.9
2022-08-20T15:49:10.147Z,19.79
2022-08-20T15:50:49.917Z,19.79
2022-08-20T15:52:29.764Z,19.78
2022-08-20T15:54:09.432Z,19.79
2022-08-20T15:55:49.223Z,19.75
2022-08-20T15:57:28.978Z,19.73
2022-08-20T15:59:08.739Z,19.7
2022-08-20T16:00:48.501Z,19.69
2022-08-20T16:02:28.257Z,19.67
2022-08-20T16:04:08.019Z,19.67
2022-08-20T16:05:47.790Z,19.65
2022-08-20T16:07:27.544Z,19.67
2022-08-20T16:09:07.313Z,19.66
2022-08-20T16:10:47.121Z,19.62
2022-08-20T16:12:26.851Z,19.64
2022-08-20T16:14:06.612Z,19.62
2022-08-20T16:15:46.375Z,19.62
2022-08-20T16:17:26.130Z,19.6
2022-08-20T16:19:05.898Z,19.6
2022-08-20T16:20:45.659Z,19.59
2022-08-20T16:22:25.429Z,19.58
2022-08-20T16:24:05.198Z,19.61
2022-08-20T16:25:44.962Z,19.54
2022-08-20T16:27:24.718Z,19.57
2022-08-20T16:29:04.491Z,19.67
2022-08-20T16:30:44.253Z,19.62
2022-08-20T16:32:24.014Z,19.54
2022-08-20T16:34:03.763Z,19.56
2022-08-20T16:35:43.528Z,19.54
2022-08-20T16:37:23.296Z,19.57
2022-08-20T16:39:03.065Z,19.53
2022-08-20T16:42:22.589Z,19.52
2022-08-20T16:44:02.358Z,19.54
2022-08-20T16:45:42.130Z,19.54
2022-08-20T16:47:21.917Z,19.53
2022-08-20T16:49:01.657Z,19.52
2022-08-20T16:50:41.409Z,19.54
2022-08-20T16:52:21.187Z,19.62
2022-08-20T16:54:00.939Z,19.54
2022-08-20T16:55:40.701Z,19.56
2022-08-20T16:57:20.500Z,19.54
2022-08-20T16:59:00.241Z,19.54
2022-08-20T17:00:39.992Z,19.54
2022-08-20T17:02:19.779Z,19.51
2022-08-20T17:03:59.519Z,19.54
2022-08-20T17:05:39.297Z,19.56
2022-08-20T17:07:19.055Z,19.58
2022-08-20T17:08:58.837Z,19.58
2022-08-20T17:10:38.577Z,19.58
2022-08-20T17:12:18.335Z,19.58
2022-08-20T17:13:58.104Z,19.56
2022-08-20T17:15:37.865Z,19.58
2022-08-20T17:17:17.643Z,19.57
2022-08-20T17:18:57.395Z,19.6
2022-08-20T17:20:37.180Z,19.59
2022-08-20T17:22:16.929Z,19.6
2022-08-20T17:23:56.701Z,19.57
2022-08-20T17:25:36.452Z,19.59
2022-08-20T17:27:16.216Z,19.56
2022-08-20T17:28:55.983Z,19.56
2022-08-20T17:30:35.754Z,19.57
2022-08-20T17:32:15.515Z,19.58
2022-08-20T17:33:55.282Z,19.54
2022-08-20T17:35:35.054Z,19.54
2022-08-20T17:37:14.818Z,19.56
2022-08-20T17:38:54.578Z,19.54
2022-08-20T17:40:34.326Z,19.54
2022-08-20T17:42:14.105Z,19.54
2022-08-20T17:43:53.863Z,19.53
2022-08-20T17:45:33.627Z,19.5
2022-08-20T17:47:13.390Z,19.53
2022-08-20T17:48:53.159Z,19.53
2022-08-20T17:50:32.919Z,19.52
2022-08-20T17:52:12.686Z,19.52
2022-08-20T17:53:52.450Z,19.51
2022-08-20T17:55:32.219Z,19.5
2022-08-20T17:57:11.977Z,19.5
2022-08-20T17:58:51.743Z,19.49
2022-08-20T18:02:11.270Z,19.46
2022-08-20T18:03:51.021Z,19.45
2022-08-20T18:05:30.792Z,19.45
2022-08-20T18:07:10.557Z,19.45
2022-08-20T18:08:50.317Z,19.45
2022-08-20T18:10:30.080Z,19.44
2022-08-20T18:12:09.859Z,19.44
2022-08-20T18:15:29.385Z,19.43
2022-08-20T18:17:09.151Z,19.43
2022-08-20T18:18:48.906Z,19.42
2022-08-20T18:20:28.678Z,19.41
2022-08-20T18:22:08.470Z,19.41
2022-08-20T18:23:48.190Z,19.45
2022-08-20T18:25:27.957Z,19.39
2022-08-20T18:27:07.724Z,19.37
2022-08-20T18:28:47.499Z,19.37
2022-08-20T18:30:27.253Z,19.45
2022-08-20T18:32:07.016Z,19.36
2022-08-20T18:33:46.787Z,19.33
2022-08-20T18:35:26.553Z,19.34
2022-08-20T18:37:06.305Z,19.29
2022-08-20T18:38:46.069Z,19.33
2022-08-20T18:40:25.851Z,19.33
2022-08-20T18:42:05.601Z,19.29
2022-08-20T18:43:45.371Z,19.31
2022-08-20T18:45:25.126Z,19.31
2022-08-20T18:47:04.892Z,19.31
2022-08-20T18:48:44.658Z,19.29
2022-08-20T18:50:24.447Z,19.32
2022-08-20T18:52:04.191Z,19.31
2022-08-20T18:53:43.960Z,19.33
2022-08-20T18:55:23.708Z,19.33
2022-08-20T18:57:03.481Z,19.34
2022-08-20T18:58:43.247Z,19.32
2022-08-20T19:00:22.999Z,19.32
2022-08-20T19:02:02.797Z,19.31
2022-08-20T19:03:42.542Z,19.31
2022-08-20T19:05:22.298Z,19.29
2022-08-20T19:08:41.827Z,19.28
2022-08-20T19:10:21.599Z,19.29
2022-08-20T19:12:01.348Z,19.29
2022-08-20T19:13:41.118Z,19.28
2022-08-20T19:15:20.886Z,19.27
2022-08-20T19:17:00.657Z,19.29
2022-08-20T19:18:40.431Z,19.27
2022-08-20T19:20:20.180Z,19.26
2022-08-20T19:21:59.945Z,19.26
2022-08-20T19:23:39.696Z,19.26
2022-08-20T19:25:19.467Z,19.25
2022-08-20T19:26:59.230Z,19.23
2022-08-20T19:28:38.990Z,19.23
2022-08-20T19:30:18.760Z,19.21
2022-08-20T19:31:58.518Z,19.21
2022-08-20T19:33:38.284Z,19.2
2022-08-20T19:35:18.061Z,19.21
2022-08-20T19:38:37.585Z,19.2
2022-08-20T19:40:17.342Z,19.2
2022-08-20T19:41:57.114Z,19.19
2022-08-20T19:43:36.874Z,19.19
2022-08-20T19:45:16.646Z,19.17
2022-08-20T19:46:56.389Z,19.18
2022-08-20T19:48:36.173Z,19.19
2022-08-20T19:50:15.927Z,19.16
2022-08-20T19:51:55.689Z,19.17
2022-08-20T19:53:35.447Z,19.15
2022-08-20T19:55:15.228Z,19.17
2022-08-20T19:56:54.985Z,19.2
2022-08-20T19:58:34.757Z,19.14
2022-08-20T20:00:14.520Z,19.16
2022-08-20T20:01:54.274Z,19.16
2022-08-20T20:05:13.794Z,19.14
2022-08-20T20:06:53.570Z,19.12
2022-08-20T20:08:33.435Z,19.12
2022-08-20T20:10:13.094Z,19.12
2022-08-20T20:11:52.870Z,19.12
2022-08-20T20:13:32.627Z,19.11
2022-08-20T20:15:12.389Z,19.1
2022-08-20T20:16:52.147Z,19.09
2022-08-20T20:18:31.915Z,19.1
2022-08-20T20:20:11.677Z,19.09
2022-08-20T20:21:51.437Z,19.07
2022-08-20T20:23:31.198Z,19.07
2022-08-20T20:25:10.965Z,19.07
2022-08-20T20:26:50.737Z,19.07
2022-08-20T20:28:30.520Z,19.02
2022-08-20T20:30:10.276Z,19.04
2022-08-20T20:31:50.040Z,19.04
2022-08-20T20:33:29.790Z,19.04
2022-08-20T20:35:09.566Z,19.04
2022-08-20T20:36:49.331Z,19.02
2022-08-20T20:38:29.143Z,19.03
2022-08-20T20:40:08.846Z,19.03
2022-08-20T20:41:48.607Z,19.02
2022-08-20T20:43:28.440Z,19.01
2022-08-20T20:45:08.136Z,19
2022-08-20T20:46:47.911Z,19.08
2022-08-20T20:48:27.685Z,19.02
2022-08-20T20:50:07.425Z,19.02
2022-08-20T20:51:47.188Z,19.02
2022-08-20T20:53:26.951Z,19.04
2022-08-20T20:55:06.723Z,19.02
2022-08-20T20:56:46.489Z,19.02
2022-08-20T20:58:26.264Z,19.01
2022-08-20T21:00:06.020Z,19.01
2022-08-20T21:01:45.791Z,19.01
2022-08-20T21:05:05.307Z,19.01
2022-08-20T21:06:45.104Z,19.01
2022-08-20T21:08:24.841Z,19.02
2022-08-20T21:10:04.610Z,19.07
2022-08-20T21:11:44.361Z,19.01
2022-08-20T21:13:24.117Z,18.99
2022-08-20T21:15:03.888Z,19
2022-08-20T21:16:43.655Z,19
2022-08-20T21:18:23.427Z,19.04
2022-08-20T21:20:03.184Z,18.99
2022-08-20T21:21:42.942Z,18.99
2022-08-20T21:23:22.704Z,19.02
2022-08-20T21:25:02.473Z,19
2022-08-20T21:28:21.999Z,18.96
2022-08-20T21:30:01.771Z,18.98
2022-08-20T21:31:41.538Z,18.96
2022-08-20T21:33:21.305Z,18.95
2022-08-20T21:35:01.067Z,18.95
2022-08-20T21:36:40.858Z,18.94
2022-08-20T21:38:20.598Z,18.93
2022-08-20T21:40:00.348Z,18.92
2022-08-20T21:41:40.108Z,18.92
2022-08-20T21:46:41.231Z,18.92
2022-08-20T21:48:19.171Z,18.91
2022-08-20T21:49:58.940Z,18.96
2022-08-20T21:51:38.709Z,18.91
2022-08-20T21:53:18.474Z,18.91
2022-08-20T21:54:58.227Z,18.91
2022-08-20T21:56:38.003Z,18.91
2022-08-20T21:58:17.752Z,18.91
2022-08-20T21:59:57.511Z,18.9
2022-08-20T22:01:37.282Z,18.91
2022-08-20T22:03:17.042Z,18.91
2022-08-20T22:04:56.823Z,18.91
2022-08-20T22:06:36.600Z,18.93
2022-08-20T22:08:16.353Z,18.91
2022-08-20T22:09:56.116Z,18.91
2022-08-20T22:11:35.873Z,18.9
2022-08-20T22:13:15.629Z,18.89
2022-08-20T22:14:55.425Z,18.89
2022-08-20T22:16:35.161Z,18.87
2022-08-20T22:18:14.926Z,18.87
2022-08-20T22:19:54.686Z,18.87
2022-08-20T22:21:34.454Z,18.85
2022-08-20T22:23:14.227Z,18.86
2022-08-20T22:24:53.971Z,18.84
2022-08-20T22:26:33.770Z,18.85